createdAt,value
2019-01-13T00:01:02.664Z,97014.26
2019-01-13T00:03:32.453Z,97014.26
2019-01-13T00:06:02.257Z,96875.48
2019-01-13T00:08:32.801Z,97005.70
2019-01-13T00:11:02.509Z,97005.70
2019-01-13T00:13:32.426Z,97012.98
2019-01-13T00:16:02.244Z,97001.41
2019-01-13T00:18:32.035Z,96995.41
2019-01-13T00:21:01.756Z,96998.84
2019-01-13T00:23:31.359Z,96994.98
2019-01-13T00:26:01.111Z,96995.84
2019-01-13T00:28:30.915Z,97002.27
2019-01-13T00:31:00.613Z,97001.85
2019-01-13T00:33:30.417Z,96989.80
2019-01-13T00:36:00.216Z,96998.81
2019-01-13T00:38:29.877Z,96989.37
2019-01-13T00:40:59.671Z,96992.38
2019-01-13T00:43:29.420Z,96989.38
2019-01-13T00:45:59.189Z,96978.66
2019-01-13T00:48:28.989Z,96978.66
2019-01-13T00:50:58.774Z,96980.36
2019-01-13T00:53:28.501Z,96991.98
2019-01-13T00:55:58.172Z,96974.77
2019-01-13T00:58:27.925Z,96967.48
2019-01-13T01:00:57.803Z,96967.91
2019-01-13T01:03:27.585Z,96962.74
2019-01-13T01:05:57.282Z,96969.20
2019-01-13T01:08:27.062Z,96961.47
2019-01-13T01:10:56.868Z,96961.05
2019-01-13T01:13:26.568Z,96949.86
2019-01-13T01:15:56.348Z,96953.75
2019-01-13T01:18:26.132Z,96949.45
2019-01-13T01:20:55.964Z,96946.02
2019-01-13T01:23:25.702Z,96946.02
2019-01-13T01:25:55.441Z,96943.41
2019-01-13T01:28:25.251Z,96941.27
2019-01-13T01:30:55.059Z,96946.45
2019-01-13T01:33:26.080Z,96936.99
2019-01-13T01:35:56.677Z,96937.40
2019-01-13T01:38:26.550Z,96929.67
2019-01-13T01:40:56.302Z,96929.67
2019-01-13T01:43:26.145Z,96929.69
2019-01-13T01:45:55.843Z,96929.69
2019-01-13T01:48:25.998Z,96919.80
2019-01-13T01:50:55.750Z,96919.80
2019-01-13T01:53:25.520Z,96923.25
2019-01-13T01:55:55.326Z,96915.95
2019-01-13T01:58:25.056Z,96916.79
2019-01-13T02:00:56.027Z,96915.50
2019-01-13T02:03:26.005Z,96906.48
2019-01-13T02:05:55.805Z,96898.31
2019-01-13T02:08:25.607Z,96896.18
2019-01-13T02:10:55.364Z,96898.77
2019-01-13T02:13:25.053Z,96901.74
2019-01-13T02:15:54.867Z,96900.03
2019-01-13T02:18:24.535Z,96894.89
2019-01-13T02:20:54.342Z,96893.15
2019-01-13T02:23:24.096Z,96890.59
2019-01-13T02:25:53.893Z,96884.16
2019-01-13T02:28:23.725Z,96892.73
2019-01-13T02:30:53.487Z,96885.88
2019-01-13T02:33:23.216Z,96890.18
2019-01-13T02:35:52.992Z,96893.18
2019-01-13T02:38:22.677Z,96885.89
2019-01-13T02:40:52.417Z,96884.16
2019-01-13T02:43:22.198Z,96882.88
2019-01-13T02:45:51.872Z,96881.16
2019-01-13T02:48:21.688Z,96874.70
2019-01-13T02:50:51.473Z,96874.70
2019-01-13T02:53:21.185Z,96866.13
2019-01-13T02:55:50.988Z,96866.13
2019-01-13T02:58:20.704Z,96872.98
2019-01-13T03:00:57.116Z,96885.88
2019-01-13T03:03:22.021Z,96879.84
2019-01-13T03:05:51.783Z,96879.39
2019-01-13T03:08:21.486Z,96879.39
2019-01-13T03:10:51.269Z,96879.41
2019-01-13T03:13:21.032Z,96845.89
2019-01-13T03:15:50.836Z,96869.52
2019-01-13T03:18:20.781Z,96857.49
2019-01-13T03:20:50.584Z,96859.64
2019-01-13T03:23:20.687Z,96863.02
2019-01-13T03:25:50.511Z,96865.59
2019-01-13T03:28:20.282Z,96865.59
2019-01-13T03:30:50.121Z,96852.24
2019-01-13T03:33:19.909Z,96852.24
2019-01-13T03:35:49.597Z,96857.41
2019-01-13T03:38:19.415Z,96847.11
2019-01-13T03:40:49.112Z,96845.37
2019-01-13T03:43:18.821Z,96838.94
2019-01-13T03:45:48.618Z,96838.05
2019-01-13T03:48:18.330Z,96830.73
2019-01-13T03:50:48.040Z,96837.58
2019-01-13T03:53:17.754Z,96844.44
2019-01-13T03:55:47.528Z,96840.66
2019-01-13T03:58:17.587Z,96848.75
2019-01-13T04:00:47.291Z,96843.58
2019-01-13T04:03:16.987Z,96847.01
2019-01-13T04:05:46.826Z,96840.58
2019-01-13T04:08:16.479Z,96849.15
2019-01-13T04:10:46.274Z,96854.72
2019-01-13T04:13:16.125Z,96853.44
2019-01-13T04:15:45.838Z,96848.30
2019-01-13T04:18:15.636Z,96834.18
2019-01-13T04:20:45.379Z,96838.49
2019-01-13T04:23:15.095Z,96843.30
2019-01-13T04:25:44.808Z,96840.73
2019-01-13T04:28:14.626Z,96840.72
2019-01-13T04:30:44.413Z,96839.41
2019-01-13T04:33:14.216Z,96833.81
2019-01-13T04:35:43.990Z,96834.22
2019-01-13T04:38:13.811Z,96835.09
2019-01-13T04:40:44.541Z,96835.09
2019-01-13T04:43:14.834Z,96829.89
2019-01-13T04:45:48.421Z,96829.94
2019-01-13T04:48:18.208Z,96829.94
2019-01-13T04:50:47.930Z,96836.34
2019-01-13T04:53:17.733Z,96841.06
2019-01-13T04:55:47.549Z,96834.20
2019-01-13T04:58:17.383Z,96835.87
2019-01-13T05:00:47.169Z,96835.87
2019-01-13T05:03:16.872Z,96841.86
2019-01-13T05:05:46.692Z,96833.73
2019-01-13T05:08:16.310Z,96838.44
2019-01-13T05:10:46.155Z,96835.84
2019-01-13T05:13:15.949Z,96828.10
2019-01-13T05:15:45.805Z,96839.23
2019-01-13T05:18:15.763Z,96832.36
2019-01-13T05:20:45.371Z,96834.50
2019-01-13T05:23:15.163Z,96841.35
2019-01-13T05:25:45.111Z,96841.35
2019-01-13T05:28:14.930Z,96843.92
2019-01-13T05:30:44.555Z,96845.20
2019-01-13T05:33:14.347Z,96846.92
2019-01-13T05:35:44.225Z,96843.53
2019-01-13T05:38:13.907Z,96850.77
2019-01-13T05:40:43.665Z,96853.31
2019-01-13T05:43:13.470Z,96853.28
2019-01-13T05:45:43.259Z,96859.70
2019-01-13T05:48:12.994Z,96870.80
2019-01-13T05:50:42.814Z,96863.48
2019-01-13T05:53:12.685Z,96865.19
2019-01-13T05:55:42.503Z,96859.59
2019-01-13T05:58:12.169Z,96857.02
2019-01-13T06:00:42.444Z,96862.12
2019-01-13T06:03:13.331Z,96859.08
2019-01-13T06:05:43.188Z,96858.22
2019-01-13T06:08:12.962Z,96867.02
2019-01-13T06:10:42.694Z,96865.31
2019-01-13T06:13:12.578Z,96872.16
2019-01-13T06:15:42.294Z,96870.02
2019-01-13T06:18:12.040Z,96865.74
2019-01-13T06:20:41.831Z,96869.97
2019-01-13T06:23:11.544Z,96866.98
2019-01-13T06:25:41.317Z,96861.47
2019-01-13T06:28:11.120Z,96859.31
2019-01-13T06:30:40.924Z,96853.76
2019-01-13T06:33:10.696Z,96853.76
2019-01-13T06:35:40.514Z,96851.63
2019-01-13T06:38:10.273Z,96862.27
2019-01-13T06:40:40.046Z,96878.78
2019-01-13T06:43:09.790Z,96877.08
2019-01-13T06:45:39.626Z,96876.27
2019-01-13T06:48:09.491Z,96872.00
2019-01-13T06:50:39.197Z,96866.91
2019-01-13T06:53:09.019Z,96874.20
2019-01-13T06:55:38.811Z,96883.66
2019-01-13T06:58:08.491Z,96880.33
2019-01-13T07:00:38.362Z,96869.20
2019-01-13T07:03:08.130Z,96867.55
2019-01-13T07:05:37.865Z,96872.81
2019-01-13T07:08:07.621Z,96869.48
2019-01-13T07:10:37.401Z,96881.08
2019-01-13T07:13:07.155Z,96871.53
2019-01-13T07:15:36.887Z,96881.57
2019-01-13T07:18:06.497Z,96882.83
2019-01-13T07:20:36.325Z,96883.25
2019-01-13T07:23:06.023Z,96879.80
2019-01-13T07:25:35.722Z,96879.80
2019-01-13T07:28:05.550Z,96891.86
2019-01-13T07:30:35.315Z,96893.59
2019-01-13T07:33:05.124Z,96891.90
2019-01-13T07:35:34.744Z,96894.45
2019-01-13T07:38:04.438Z,96897.91
2019-01-13T07:40:34.188Z,96901.31
2019-01-13T07:43:04.045Z,96902.19
2019-01-13T07:45:33.817Z,96897.89
2019-01-13T07:48:03.787Z,96908.17
2019-01-13T07:50:33.588Z,96904.77
2019-01-13T07:53:03.325Z,96904.77
2019-01-13T07:55:33.063Z,96897.89
2019-01-13T07:58:02.826Z,96903.91
2019-01-13T08:00:32.660Z,96900.06
2019-01-13T08:03:02.472Z,96900.06
2019-01-13T08:05:32.252Z,96902.52
2019-01-13T08:08:02.291Z,96899.89
2019-01-13T08:10:32.072Z,96909.77
2019-01-13T08:13:02.474Z,96909.77
2019-01-13T08:15:32.645Z,96894.13
2019-01-13T08:18:02.474Z,96894.13
2019-01-13T08:20:32.972Z,96900.92
2019-01-13T08:23:03.090Z,96905.53
2019-01-13T08:25:32.894Z,96892.50
2019-01-13T08:28:02.587Z,96889.63
2019-01-13T08:30:32.342Z,96894.79
2019-01-13T08:33:02.040Z,96895.08
2019-01-13T08:35:33.434Z,96894.83
2019-01-13T08:38:03.227Z,96890.30
2019-01-13T08:40:32.950Z,96891.23
2019-01-13T08:43:02.684Z,96888.44
2019-01-13T08:45:32.437Z,96887.59
2019-01-13T08:48:02.079Z,96885.20
2019-01-13T08:50:31.773Z,96884.00
2019-01-13T08:53:01.590Z,96887.17
2019-01-13T08:55:31.408Z,96890.36
2019-01-13T08:58:01.208Z,96886.66
2019-01-13T09:00:31.524Z,96884.37
2019-01-13T09:03:01.343Z,96888.36
2019-01-13T09:05:31.120Z,96885.05
2019-01-13T09:08:00.838Z,96875.52
2019-01-13T09:10:30.796Z,96870.86
2019-01-13T09:13:00.591Z,96869.45
2019-01-13T09:15:30.565Z,96873.78
2019-01-13T09:18:00.375Z,96878.16
2019-01-13T09:20:30.541Z,96880.57
2019-01-13T09:23:02.477Z,96880.59
2019-01-13T09:25:32.357Z,96885.43
2019-01-13T09:28:03.558Z,96880.27
2019-01-13T09:30:33.782Z,96877.33
2019-01-13T09:33:05.572Z,96871.45
2019-01-13T09:35:35.961Z,96868.30
2019-01-13T09:38:06.776Z,96858.08
2019-01-13T09:40:36.868Z,96859.64
2019-01-13T09:43:06.614Z,96856.34
2019-01-13T09:45:36.727Z,96856.16
2019-01-13T09:48:06.467Z,96851.70
2019-01-13T09:50:36.274Z,96853.75
2019-01-13T09:53:08.922Z,96848.35
2019-01-13T09:55:38.721Z,96836.34
2019-01-13T09:58:08.588Z,96833.23
2019-01-13T10:00:38.471Z,96834.42
2019-01-13T10:03:08.185Z,96826.77
2019-01-13T10:05:37.947Z,96823.56
2019-01-13T10:08:07.798Z,96818.14
2019-01-13T10:10:37.526Z,96816.39
2019-01-13T10:13:07.386Z,96811.44
2019-01-13T10:15:37.082Z,96801.97
2019-01-13T10:18:06.928Z,96806.75
2019-01-13T10:20:36.638Z,96804.59
2019-01-13T10:23:06.449Z,96795.98
2019-01-13T10:25:36.260Z,96798.92
2019-01-13T10:28:05.944Z,96797.28
2019-01-13T10:30:36.667Z,96787.37
2019-01-13T10:33:06.397Z,96785.75
2019-01-13T10:35:36.156Z,96773.64
2019-01-13T10:38:05.921Z,96767.93
2019-01-13T10:40:35.766Z,96774.55
2019-01-13T10:43:06.440Z,96769.57
2019-01-13T10:45:38.365Z,96760.38
2019-01-13T10:48:10.344Z,96756.95
2019-01-13T10:50:41.649Z,96760.05
2019-01-13T10:53:11.554Z,96752.41
2019-01-13T10:55:41.671Z,96757.63
2019-01-13T10:58:11.422Z,96756.77
2019-01-13T11:00:41.303Z,96740.17
2019-01-13T11:03:11.649Z,96743.67
2019-01-13T11:05:42.546Z,96728.41
2019-01-13T11:08:13.197Z,96727.34
2019-01-13T11:10:42.990Z,96715.73
2019-01-13T11:13:12.802Z,96704.62
2019-01-13T11:15:42.627Z,96700.94
2019-01-13T11:18:12.551Z,96694.88
2019-01-13T11:20:43.284Z,96690.33
2019-01-13T11:23:13.091Z,96674.89
2019-01-13T11:25:44.435Z,96661.03
2019-01-13T11:28:14.288Z,96664.69
2019-01-13T11:30:44.163Z,96660.70
2019-01-13T11:33:13.916Z,96662.02
2019-01-13T11:35:44.367Z,96660.93
2019-01-13T11:38:15.416Z,96652.81
2019-01-13T11:40:45.210Z,96635.22
2019-01-13T11:43:15.061Z,96627.40
2019-01-13T11:45:44.873Z,96618.50
2019-01-13T11:48:15.369Z,96615.42
2019-01-13T11:50:45.198Z,96612.22
2019-01-13T11:53:14.993Z,96620.98
2019-01-13T11:55:44.861Z,96608.11
2019-01-13T11:58:15.798Z,96608.30
2019-01-13T12:00:45.783Z,96605.94
2019-01-13T12:03:16.968Z,96608.48
2019-01-13T12:05:47.147Z,96607.94
2019-01-13T12:08:17.513Z,96597.52
2019-01-13T12:10:47.421Z,96592.61
2019-01-13T12:13:18.821Z,96581.88
2019-01-13T12:15:48.623Z,96578.87
2019-01-13T12:18:18.371Z,96576.61
2019-01-13T12:20:49.151Z,96569.44
2019-01-13T12:23:19.002Z,96569.20
2019-01-13T12:25:52.732Z,96564.88
2019-01-13T12:28:20.318Z,96563.31
2019-01-13T12:30:49.931Z,96557.97
2019-01-13T12:33:24.486Z,96546.60
2019-01-13T12:35:52.150Z,96541.87
2019-01-13T12:38:21.977Z,96541.53
2019-01-13T12:40:52.767Z,96534.23
2019-01-13T12:43:23.536Z,96529.34
2019-01-13T12:45:54.219Z,96526.52
2019-01-13T12:48:24.242Z,96520.52
2019-01-13T12:50:54.044Z,96517.78
2019-01-13T12:53:24.012Z,96512.88
2019-01-13T12:55:53.815Z,96507.08
2019-01-13T12:58:23.445Z,96510.83
2019-01-13T13:00:53.615Z,96503.52
2019-01-13T13:03:31.450Z,96495.79
2019-01-13T13:05:56.665Z,96504.66
2019-01-13T13:08:28.988Z,96502.37
2019-01-13T13:10:58.800Z,96487.18
2019-01-13T13:13:28.671Z,96483.79
2019-01-13T13:16:00.036Z,96493.70
2019-01-13T13:18:31.477Z,96483.33
2019-01-13T13:21:01.319Z,96476.42
2019-01-13T13:23:31.123Z,96470.78
2019-01-13T13:26:00.999Z,96468.59
2019-01-13T13:28:30.793Z,96464.32
2019-01-13T13:31:00.422Z,96465.56
2019-01-13T13:33:30.692Z,96461.09
2019-01-13T13:36:00.483Z,96456.56
2019-01-13T13:38:30.406Z,96449.89
2019-01-13T13:41:00.179Z,96447.76
2019-01-13T13:43:31.777Z,96443.81
2019-01-13T13:46:02.907Z,96439.66
2019-01-13T13:48:33.652Z,96433.20
2019-01-13T13:51:03.732Z,96435.81
2019-01-13T13:53:35.978Z,96427.63
2019-01-13T13:56:05.996Z,96427.69
2019-01-13T13:58:36.185Z,96417.03
2019-01-13T14:01:06.285Z,96408.75
2019-01-13T14:03:36.105Z,96399.24
2019-01-13T14:06:06.289Z,96398.55
2019-01-13T14:08:37.636Z,96397.08
2019-01-13T14:11:07.444Z,96379.84
2019-01-13T14:13:37.848Z,96380.30
2019-01-13T14:16:07.475Z,96378.05
2019-01-13T14:18:38.867Z,96370.27
2019-01-13T14:21:08.770Z,96365.86
2019-01-13T14:23:38.675Z,96355.02
2019-01-13T14:26:08.619Z,96347.55
2019-01-13T14:28:38.461Z,96342.41
2019-01-13T14:31:08.264Z,96335.29
2019-01-13T14:33:38.364Z,96328.84
2019-01-13T14:36:08.572Z,96324.64
2019-01-13T14:38:39.052Z,96320.47
2019-01-13T14:41:08.833Z,96313.44
2019-01-13T14:43:38.761Z,96305.75
2019-01-13T14:46:08.490Z,96300.53
2019-01-13T14:48:39.206Z,96294.86
2019-01-13T14:51:11.235Z,96290.11
2019-01-13T14:53:42.662Z,96276.33
2019-01-13T14:56:12.514Z,96283.29
2019-01-13T14:58:42.295Z,96273.33
2019-01-13T15:01:12.089Z,96268.08
2019-01-13T15:03:41.907Z,96265.78
2019-01-13T15:06:11.686Z,96271.55
2019-01-13T15:08:41.586Z,96264.42
2019-01-13T15:11:11.789Z,96269.80
2019-01-13T15:13:41.616Z,96259.78
2019-01-13T15:16:11.433Z,96250.90
2019-01-13T15:18:41.266Z,96241.48
2019-01-13T15:21:11.078Z,96237.34
2019-01-13T15:23:41.103Z,96232.80
2019-01-13T15:26:10.911Z,96228.20
2019-01-13T15:28:40.672Z,96242.70
2019-01-13T15:31:10.733Z,96236.25
2019-01-13T15:33:40.524Z,96231.82
2019-01-13T15:36:10.290Z,96229.22
2019-01-13T15:38:40.077Z,96220.03
2019-01-13T15:41:09.739Z,96219.97
2019-01-13T15:43:39.570Z,96218.75
2019-01-13T15:46:09.343Z,96219.45
2019-01-13T15:48:40.526Z,96223.20
2019-01-13T15:51:12.725Z,96223.16
2019-01-13T15:53:43.083Z,96220.82
2019-01-13T15:56:15.366Z,96209.77
2019-01-13T15:58:45.875Z,96215.52
2019-01-13T16:01:17.634Z,96202.25
2019-01-13T16:03:52.564Z,96189.45
2019-01-13T16:06:24.575Z,96198.66
2019-01-13T16:08:56.039Z,96192.75
2019-01-13T16:11:42.903Z,96195.05
2019-01-13T16:14:14.334Z,96199.47
2019-01-13T16:16:44.961Z,96197.45
2019-01-13T16:19:14.675Z,96188.88
2019-01-13T16:21:44.570Z,96173.80
2019-01-13T16:24:18.581Z,96177.02
2019-01-13T16:26:54.075Z,96162.38
2019-01-13T16:29:36.483Z,96157.34
2019-01-13T16:32:13.069Z,96159.73
2019-01-13T16:34:43.389Z,96169.81
2019-01-13T16:37:13.852Z,96153.25
2019-01-13T16:39:45.078Z,96147.96
2019-01-13T16:42:15.014Z,96146.37
2019-01-13T16:44:47.552Z,96147.34
2019-01-13T16:47:17.904Z,96152.75
2019-01-13T16:49:47.823Z,96135.42
2019-01-13T16:52:22.691Z,96125.73
2019-01-13T16:54:52.552Z,96128.63
2019-01-13T16:57:22.427Z,96120.84
2019-01-13T16:59:52.078Z,96120.07
2019-01-13T17:02:21.989Z,96105.14
2019-01-13T17:04:51.846Z,96098.52
2019-01-13T17:07:22.442Z,96091.26
2019-01-13T17:09:53.376Z,96084.91
2019-01-13T17:12:24.026Z,96088.19
2019-01-13T17:14:54.476Z,96086.16
2019-01-13T17:17:25.438Z,96089.26
2019-01-13T17:19:55.495Z,96088.59
2019-01-13T17:22:25.269Z,96086.44
2019-01-13T17:24:55.145Z,96081.57
2019-01-13T17:27:28.246Z,96059.89
2019-01-13T17:29:58.436Z,96056.75
2019-01-13T17:32:28.532Z,96052.66
2019-01-13T17:34:58.893Z,96056.27
2019-01-13T17:37:28.755Z,96062.73
2019-01-13T17:39:59.881Z,96065.83
2019-01-13T17:42:30.065Z,96064.20
2019-01-13T17:44:59.927Z,96070.09
2019-01-13T17:47:30.291Z,96070.97
2019-01-13T17:50:01.286Z,96061.22
2019-01-13T17:52:31.298Z,96060.20
2019-01-13T17:55:01.096Z,96055.26
2019-01-13T17:57:31.596Z,96042.12
2019-01-13T18:00:01.975Z,96037.06
2019-01-13T18:02:32.203Z,96016.44
2019-01-13T18:05:03.236Z,96004.22
2019-01-13T18:07:35.477Z,96002.80
2019-01-13T18:10:10.023Z,95999.64
2019-01-13T18:12:40.018Z,95997.30
2019-01-13T18:15:12.348Z,96012.84
2019-01-13T18:17:42.250Z,96006.17
2019-01-13T18:20:15.085Z,96009.11
2019-01-13T18:22:45.142Z,96015.80
2019-01-13T18:25:14.982Z,96005.13
2019-01-13T18:27:50.331Z,95998.09
2019-01-13T18:30:25.789Z,95998.02
2019-01-13T18:33:01.245Z,95985.21
2019-01-13T18:35:31.797Z,95978.46
2019-01-13T18:38:02.253Z,95986.75
2019-01-13T18:40:35.321Z,95987.20
2019-01-13T18:43:06.234Z,95970.92
2019-01-13T18:45:40.927Z,95968.02
2019-01-13T18:48:11.174Z,95955.63
2019-01-13T18:50:41.442Z,95936.58
2019-01-13T18:53:15.546Z,95944.87
2019-01-13T18:55:45.603Z,95942.08
2019-01-13T18:58:17.506Z,95944.09
2019-01-13T19:00:47.935Z,95928.64
2019-01-13T19:03:20.332Z,95921.70
2019-01-13T19:05:53.256Z,95914.61
2019-01-13T19:08:23.454Z,95919.91
2019-01-13T19:11:08.011Z,95910.89
2019-01-13T19:13:47.141Z,95895.16
2019-01-13T19:16:23.059Z,95881.41
2019-01-13T19:18:54.641Z,95882.72
2019-01-13T19:21:26.764Z,95872.37
2019-01-13T19:23:57.633Z,95872.50
2019-01-13T19:26:29.527Z,95877.50
2019-01-13T19:28:59.369Z,95877.69
2019-01-13T19:31:29.370Z,95881.55
2019-01-13T19:34:01.063Z,95878.40
2019-01-13T19:36:30.914Z,95864.81
2019-01-13T19:39:01.010Z,95854.11
2019-01-13T19:41:31.948Z,95861.65
2019-01-13T19:44:03.271Z,95863.14
2019-01-13T19:46:33.445Z,95851.05
2019-01-13T19:49:04.075Z,95836.06
2019-01-13T19:51:34.251Z,95826.61
2019-01-13T19:54:04.519Z,95814.23
2019-01-13T19:56:34.337Z,95805.09
2019-01-13T19:59:04.446Z,95822.91
2019-01-13T20:01:34.391Z,95831.13
2019-01-13T20:04:05.433Z,95815.44
2019-01-13T20:06:35.336Z,95814.45
2019-01-13T20:09:08.600Z,95804.42
2019-01-13T20:11:43.985Z,95801.77
2019-01-13T20:14:19.925Z,95796.81
2019-01-13T20:16:54.131Z,95800.91
2019-01-13T20:19:25.216Z,95809.64
2019-01-13T20:21:55.240Z,95817.33
2019-01-13T20:24:25.201Z,95822.52
2019-01-13T20:26:55.563Z,95812.81
2019-01-13T20:29:27.120Z,95802.82
2019-01-13T20:31:58.454Z,95798.14
2019-01-13T20:34:33.316Z,95794.09
2019-01-13T20:37:06.523Z,95793.44
2019-01-13T20:39:44.668Z,95782.50
2019-01-13T20:42:15.645Z,95775.03
2019-01-13T20:44:46.711Z,95772.28
2019-01-13T20:47:20.392Z,95772.50
2019-01-13T20:49:52.748Z,95766.14
2019-01-13T20:52:24.325Z,95755.85
2019-01-13T20:54:56.034Z,95745.27
2019-01-13T20:57:27.263Z,95730.80
2019-01-13T21:00:07.225Z,95723.66
2019-01-13T21:02:41.337Z,95728.04
2019-01-13T21:05:14.443Z,95719.02
2019-01-13T21:07:44.736Z,95713.51
2019-01-13T21:10:21.195Z,95710.16
2019-01-13T21:12:54.716Z,95704.52
2019-01-13T21:15:30.472Z,95703.35
2019-01-13T21:18:02.274Z,95704.51
2019-01-13T21:20:37.702Z,95694.03
2019-01-13T21:23:09.080Z,95693.25
2019-01-13T21:25:39.882Z,95694.73
2019-01-13T21:28:17.698Z,95685.60
2019-01-13T21:30:47.996Z,95675.78
2019-01-13T21:33:18.824Z,95687.30
2019-01-13T21:35:57.055Z,95691.78
2019-01-13T21:38:27.825Z,95692.83
2019-01-13T21:40:58.217Z,95694.30
2019-01-13T21:43:30.237Z,95694.45
2019-01-13T21:46:05.880Z,95689.20
2019-01-13T21:48:48.490Z,95691.33
2019-01-13T21:51:20.171Z,95690.50
2019-01-13T21:53:51.269Z,95681.31
2019-01-13T21:56:26.538Z,95654.31
2019-01-13T21:58:57.777Z,95638.47
2019-01-13T22:01:27.683Z,95654.45
2019-01-13T22:04:04.718Z,95657.70
2019-01-13T22:06:35.558Z,95643.47
2019-01-13T22:09:09.320Z,95640.87
2019-01-13T22:11:39.489Z,95627.38
2019-01-13T22:14:10.986Z,95616.83
2019-01-13T22:16:41.336Z,95609.66
2019-01-13T22:19:11.464Z,95607.62
2019-01-13T22:21:45.073Z,95594.95
2019-01-13T22:24:16.975Z,95589.41
2019-01-13T22:26:47.956Z,95591.01
2019-01-13T22:29:21.126Z,95590.05
2019-01-13T22:31:52.640Z,95599.73
2019-01-13T22:34:25.090Z,95609.09
2019-01-13T22:36:57.780Z,95619.84
2019-01-13T22:39:29.623Z,95624.36
2019-01-13T22:42:05.263Z,95629.34
2019-01-13T22:44:35.554Z,95615.18
2019-01-13T22:47:08.498Z,95597.02
2019-01-13T22:49:45.074Z,95564.17
2019-01-13T22:52:19.153Z,95569.99
2019-01-13T22:54:55.535Z,95578.97
2019-01-13T22:57:31.937Z,95435.25
2019-01-13T23:00:09.695Z,95585.00
2019-01-13T23:02:45.490Z,95587.31
2019-01-13T23:05:19.472Z,95577.55
2019-01-13T23:07:56.323Z,95583.96
2019-01-13T23:10:32.971Z,95590.60
2019-01-13T23:13:07.824Z,95593.06
2019-01-13T23:15:44.500Z,95591.56
2019-01-13T23:18:19.457Z,95574.81
2019-01-13T23:20:57.536Z,95558.48
2019-01-13T23:23:33.594Z,95538.19
2019-01-13T23:26:09.783Z,95548.14
2019-01-13T23:28:49.026Z,95553.23
2019-01-13T23:31:28.792Z,95561.83
2019-01-13T23:34:06.372Z,95559.11
2019-01-13T23:36:44.819Z,95559.72
2019-01-13T23:39:27.676Z,95557.05
2019-01-13T23:42:03.190Z,95556.00
2019-01-13T23:44:40.570Z,95554.90
2019-01-13T23:47:18.177Z,95570.41
2019-01-13T23:49:57.026Z,95561.65
2019-01-13T23:52:35.582Z,95561.56
2019-01-13T23:55:13.245Z,95548.90
2019-01-13T23:57:51.225Z,95533.72
